createdAt,value
2019-03-19T00:02:07.644Z,4.20
2019-03-19T00:04:34.899Z,5.60
2019-03-19T00:07:02.126Z,3.83
2019-03-19T00:09:29.285Z,4.40
2019-03-19T00:11:57.869Z,4.40
2019-03-19T00:14:25.189Z,5.47
2019-03-19T00:16:52.666Z,4.80
2019-03-19T00:19:19.823Z,3.90
2019-03-19T00:21:47.146Z,4.80
2019-03-19T00:24:14.655Z,4.40
2019-03-19T00:26:41.839Z,5.20
2019-03-19T00:29:09.062Z,5.20
2019-03-19T00:31:36.259Z,5.10
2019-03-19T00:34:03.469Z,4.80
2019-03-19T00:36:30.696Z,5.33
2019-03-19T00:38:58.232Z,5.17
2019-03-19T00:41:25.828Z,5.17
2019-03-19T00:43:53.021Z,5.07
2019-03-19T00:46:20.222Z,5.97
2019-03-19T00:48:47.785Z,5.73
2019-03-19T00:51:15.131Z,5.50
2019-03-19T00:53:42.339Z,5.40
2019-03-19T00:56:09.577Z,5.77
2019-03-19T00:58:36.739Z,5.40
2019-03-19T01:01:03.987Z,4.23
2019-03-19T01:03:31.123Z,4.77
2019-03-19T01:05:58.514Z,5.10
2019-03-19T01:08:25.732Z,4.57
2019-03-19T01:10:53.081Z,4.40
2019-03-19T01:13:20.308Z,4.60
2019-03-19T01:15:47.741Z,4.37
2019-03-19T01:18:15.630Z,4.37
2019-03-19T01:20:42.806Z,5.30
2019-03-19T01:23:10.349Z,4.30
2019-03-19T01:25:37.509Z,4.77
2019-03-19T01:28:05.058Z,4.30
2019-03-19T01:30:32.200Z,4.17
2019-03-19T01:32:59.250Z,4.40
2019-03-19T01:35:26.432Z,4.30
2019-03-19T01:37:53.500Z,4.70
2019-03-19T01:40:20.668Z,7.07
2019-03-19T01:42:47.876Z,4.00
2019-03-19T01:45:15.026Z,5.00
2019-03-19T01:47:42.496Z,4.90
2019-03-19T01:50:09.809Z,4.67
2019-03-19T01:52:37.238Z,5.63
2019-03-19T01:55:05.392Z,4.40
2019-03-19T01:57:32.638Z,5.80
2019-03-19T01:59:59.922Z,5.13
2019-03-19T02:02:27.072Z,5.40
2019-03-19T02:04:54.716Z,5.20
2019-03-19T02:07:21.863Z,5.20
2019-03-19T02:09:49.126Z,4.60
2019-03-19T02:12:16.292Z,5.23
2019-03-19T02:14:43.387Z,5.80
2019-03-19T02:17:12.557Z,5.60
2019-03-19T02:19:39.760Z,5.27
2019-03-19T02:22:06.922Z,7.00
2019-03-19T02:24:34.120Z,6.03
2019-03-19T02:27:01.356Z,6.00
2019-03-19T02:29:28.681Z,6.00
2019-03-19T02:31:56.176Z,6.23
2019-03-19T02:34:23.352Z,6.63
2019-03-19T02:36:50.504Z,5.60
2019-03-19T02:39:17.770Z,6.60
2019-03-19T02:41:44.984Z,7.47
2019-03-19T02:44:12.171Z,7.03
2019-03-19T02:46:39.321Z,7.00
2019-03-19T02:49:06.538Z,7.40
2019-03-19T02:51:33.722Z,7.13
2019-03-19T02:54:00.870Z,7.97
2019-03-19T02:56:33.266Z,6.93
2019-03-19T02:58:57.609Z,8.27
2019-03-19T03:01:24.744Z,8.17
2019-03-19T03:03:51.903Z,7.80
2019-03-19T03:06:19.490Z,9.00
2019-03-19T03:08:46.640Z,8.07
2019-03-19T03:11:14.143Z,8.40
2019-03-19T03:13:41.423Z,7.97
2019-03-19T03:16:08.624Z,7.13
2019-03-19T03:18:35.951Z,7.77
2019-03-19T03:21:03.254Z,8.93
2019-03-19T03:23:30.537Z,8.70
2019-03-19T03:25:58.665Z,7.40
2019-03-19T03:28:25.845Z,7.10
2019-03-19T03:30:53.061Z,8.30
2019-03-19T03:33:20.207Z,9.93
2019-03-19T03:35:47.277Z,7.87
2019-03-19T03:38:14.799Z,8.00
2019-03-19T03:40:42.001Z,8.07
2019-03-19T03:43:09.087Z,8.20
2019-03-19T03:45:36.143Z,7.90
2019-03-19T03:48:44.208Z,7.40
2019-03-19T03:54:34.091Z,7.30
2019-03-19T03:57:02.829Z,7.90
2019-03-19T03:59:40.219Z,6.40
2019-03-19T04:02:07.430Z,8.00
2019-03-19T04:07:35.506Z,6.97
2019-03-19T04:16:20.213Z,7.10
2019-03-19T04:22:19.398Z,7.37
2019-03-19T04:28:01.101Z,7.20
2019-03-19T04:30:28.803Z,8.50
2019-03-19T04:33:15.459Z,8.13
2019-03-19T04:35:42.646Z,8.00
2019-03-19T04:38:09.857Z,8.20
2019-03-19T04:40:56.402Z,7.97
2019-03-19T04:43:23.610Z,7.97
2019-03-19T04:45:50.668Z,7.20
2019-03-19T04:48:17.880Z,6.70
2019-03-19T04:51:25.800Z,7.10
2019-03-19T04:53:52.999Z,6.50
2019-03-19T04:56:20.059Z,7.70
2019-03-19T04:59:06.735Z,6.90
2019-03-19T05:01:33.772Z,7.17
2019-03-19T05:07:02.230Z,9.87
2019-03-19T05:12:37.650Z,8.93
2019-03-19T05:15:45.622Z,8.33
2019-03-19T05:18:32.178Z,9.60
2019-03-19T05:20:59.212Z,9.73
2019-03-19T05:26:06.164Z,8.90
2019-03-19T05:28:53.161Z,9.63
2019-03-19T05:31:20.480Z,9.03
2019-03-19T05:33:47.639Z,8.43
2019-03-19T05:36:14.860Z,8.37
2019-03-19T05:39:01.694Z,9.73
2019-03-19T05:41:30.644Z,8.67
2019-03-19T05:44:17.346Z,8.50
2019-03-19T05:46:44.504Z,8.50
2019-03-19T05:49:11.702Z,8.23
2019-03-19T05:54:39.818Z,8.20
2019-03-19T05:57:07.372Z,9.00
2019-03-19T05:59:34.556Z,8.53
2019-03-19T06:02:01.773Z,8.87
2019-03-19T06:04:28.988Z,8.63
2019-03-19T06:06:56.215Z,8.73
2019-03-19T06:12:24.378Z,9.40
2019-03-19T06:24:02.893Z,5.90
2019-03-19T06:26:30.417Z,6.60
2019-03-19T06:28:57.658Z,5.70
2019-03-19T06:31:44.559Z,8.43
2019-03-19T06:34:16.639Z,6.07
2019-03-19T06:36:50.209Z,6.70
2019-03-19T06:42:38.068Z,6.77
2019-03-19T06:45:06.691Z,6.23
2019-03-19T06:53:34.635Z,6.93
2019-03-19T06:56:01.759Z,7.57
2019-03-19T06:58:30.686Z,6.70
2019-03-19T07:00:57.951Z,7.10
2019-03-19T07:03:25.176Z,6.90
2019-03-19T07:05:52.252Z,5.27
2019-03-19T07:08:19.485Z,5.93
2019-03-19T07:10:47.020Z,5.57
2019-03-19T07:13:14.212Z,5.30
2019-03-19T07:15:41.436Z,6.07
2019-03-19T07:18:08.615Z,6.37
2019-03-19T07:21:16.611Z,6.10
2019-03-19T07:27:04.476Z,5.17
2019-03-19T07:32:52.239Z,6.43
2019-03-19T07:35:31.934Z,6.13
2019-03-19T07:41:19.938Z,5.50
2019-03-19T07:43:47.156Z,5.90
2019-03-19T07:52:16.734Z,5.00
2019-03-19T07:54:55.926Z,5.67
2019-03-19T07:57:42.619Z,5.63
2019-03-19T08:03:16.114Z,5.23
2019-03-19T08:08:58.872Z,5.00
2019-03-19T08:11:26.025Z,5.00
2019-03-19T08:14:04.710Z,4.60
2019-03-19T08:16:31.874Z,4.43
2019-03-19T08:18:59.025Z,5.47
2019-03-19T08:27:53.944Z,4.27
2019-03-19T08:30:21.046Z,4.73
2019-03-19T08:33:07.587Z,4.13
2019-03-19T08:38:47.619Z,4.05
2019-03-19T08:41:26.517Z,4.70
2019-03-19T08:46:34.254Z,4.05
2019-03-19T08:49:22.389Z,4.37
2019-03-19T09:07:15.782Z,4.78
2019-03-19T09:09:42.960Z,4.13
2019-03-19T09:12:10.510Z,4.60
2019-03-19T09:14:37.678Z,5.10
2019-03-19T09:19:42.794Z,4.60
2019-03-19T09:22:29.934Z,4.80
2019-03-19T09:25:45.534Z,4.70
2019-03-19T09:28:13.080Z,5.13
2019-03-19T09:34:20.235Z,5.97
2019-03-19T09:39:25.446Z,3.90
2019-03-19T09:41:52.743Z,4.47
2019-03-19T09:44:19.980Z,4.07
2019-03-19T09:46:47.578Z,4.47
2019-03-19T09:57:56.966Z,3.83
2019-03-19T10:00:24.148Z,4.13
2019-03-19T10:02:51.353Z,3.90
2019-03-19T10:08:20.257Z,3.53
2019-03-19T10:10:47.768Z,2.87
2019-03-19T10:16:16.320Z,3.70
2019-03-19T10:18:43.494Z,4.00
2019-03-19T10:21:10.705Z,3.57
2019-03-19T10:24:18.736Z,3.57
2019-03-19T10:26:45.904Z,3.67
2019-03-19T10:29:53.950Z,3.17
2019-03-19T10:32:40.588Z,2.90
2019-03-19T10:35:07.866Z,3.60
2019-03-19T10:40:45.804Z,3.83
2019-03-19T10:43:13.280Z,3.70
2019-03-19T10:45:40.429Z,5.83
2019-03-19T10:48:07.490Z,3.40
2019-03-19T10:50:34.549Z,3.20
2019-03-19T10:53:42.586Z,3.83
2019-03-19T10:56:09.709Z,3.20
2019-03-19T10:59:17.855Z,2.83
2019-03-19T11:05:50.377Z,2.90
2019-03-19T11:08:17.567Z,2.87
2019-03-19T11:11:25.624Z,2.83
2019-03-19T11:13:52.824Z,2.60
2019-03-19T11:16:20.037Z,3.13
2019-03-19T11:18:47.271Z,2.93
2019-03-19T11:24:22.746Z,3.20
2019-03-19T11:26:49.931Z,3.20
2019-03-19T11:29:29.071Z,2.80
2019-03-19T11:32:15.736Z,2.90
2019-03-19T11:35:02.765Z,2.87
2019-03-19T11:37:30.346Z,2.90
2019-03-19T11:43:12.608Z,2.80
2019-03-19T11:45:39.889Z,3.27
2019-03-19T11:48:06.969Z,3.33
2019-03-19T11:50:34.092Z,3.20
2019-03-19T11:53:15.677Z,3.33
2019-03-19T11:56:02.920Z,3.00
2019-03-19T11:58:30.037Z,2.97
2019-03-19T12:03:41.188Z,2.90
2019-03-19T12:06:28.448Z,3.67
2019-03-19T12:09:15.700Z,4.60
2019-03-19T12:11:43.490Z,3.17
2019-03-19T12:14:10.552Z,2.73
2019-03-19T12:19:38.938Z,3.40
2019-03-19T12:22:06.096Z,3.00
2019-03-19T12:24:33.319Z,2.70
2019-03-19T12:27:00.539Z,2.97
2019-03-19T12:33:12.341Z,2.87
2019-03-19T12:35:39.736Z,2.13
2019-03-19T12:38:06.985Z,2.90
2019-03-19T12:40:37.075Z,2.83
2019-03-19T12:43:10.126Z,2.80
2019-03-19T12:45:37.298Z,2.97
2019-03-19T12:48:45.358Z,2.37
2019-03-19T12:51:12.974Z,2.60
2019-03-19T12:53:59.723Z,3.00
2019-03-19T12:56:26.863Z,2.23
2019-03-19T12:58:54.044Z,3.07
2019-03-19T13:02:02.013Z,2.70
2019-03-19T13:04:29.188Z,2.73
2019-03-19T13:06:56.712Z,3.27
2019-03-19T13:18:05.966Z,2.23
2019-03-19T13:21:13.864Z,1.90
2019-03-19T13:23:41.424Z,2.57
2019-03-19T13:26:08.592Z,2.80
2019-03-19T13:28:35.821Z,2.33
2019-03-19T13:31:03.037Z,2.90
2019-03-19T13:37:04.233Z,2.43
2019-03-19T13:39:31.420Z,2.10
2019-03-19T13:42:10.167Z,2.57
2019-03-19T13:47:57.360Z,2.70
2019-03-19T13:50:24.570Z,2.33
2019-03-19T13:53:07.527Z,2.60
2019-03-19T13:56:16.108Z,2.40
2019-03-19T13:58:55.346Z,2.87
2019-03-19T14:01:45.610Z,1.93
2019-03-19T14:04:12.702Z,2.77
2019-03-19T14:06:39.882Z,2.63
2019-03-19T14:12:09.476Z,2.23
2019-03-19T14:14:36.609Z,2.87
2019-03-19T14:17:03.775Z,2.30
2019-03-19T14:19:30.871Z,2.80
2019-03-19T14:21:58.066Z,3.20
2019-03-19T14:24:39.192Z,2.60
2019-03-19T14:27:47.167Z,2.60
2019-03-19T14:30:27.104Z,2.33
2019-03-19T14:39:28.523Z,2.67
2019-03-19T14:42:15.529Z,1.70
2019-03-19T14:44:42.782Z,2.60
2019-03-19T14:47:09.941Z,2.60
2019-03-19T14:49:46.271Z,1.97
2019-03-19T14:52:12.161Z,3.40
2019-03-19T14:54:39.380Z,2.93
2019-03-19T14:57:47.420Z,2.93
2019-03-19T15:06:49.873Z,2.17
2019-03-19T15:10:04.594Z,2.50
2019-03-19T15:13:03.779Z,2.77
2019-03-19T15:15:30.955Z,2.20
2019-03-19T15:17:58.048Z,3.07
2019-03-19T15:20:25.294Z,2.53
2019-03-19T15:22:52.499Z,2.53
2019-03-19T15:25:19.731Z,2.37
2019-03-19T15:27:46.828Z,3.07
2019-03-19T15:33:14.909Z,1.80
2019-03-19T15:35:42.003Z,2.00
2019-03-19T15:46:52.659Z,3.60
2019-03-19T15:55:00.962Z,2.23
2019-03-19T15:57:47.617Z,2.50
2019-03-19T16:00:14.836Z,2.13
2019-03-19T16:03:03.250Z,3.27
2019-03-19T16:05:30.355Z,2.40
2019-03-19T16:08:16.991Z,2.00
2019-03-19T16:10:44.220Z,1.70
2019-03-19T16:13:11.373Z,1.77
2019-03-19T16:18:53.189Z,2.43
2019-03-19T16:21:20.375Z,2.83
2019-03-19T16:23:47.958Z,2.13
2019-03-19T16:26:15.206Z,2.80
2019-03-19T16:32:47.680Z,2.33
2019-03-19T16:35:15.444Z,2.50
2019-03-19T16:37:42.633Z,2.27
2019-03-19T16:40:42.896Z,2.47
2019-03-19T16:43:10.123Z,2.13
2019-03-19T16:45:37.227Z,2.10
2019-03-19T16:48:04.403Z,2.40
2019-03-19T16:50:51.315Z,2.27
2019-03-19T16:56:33.079Z,3.00
2019-03-19T16:59:00.677Z,1.97
2019-03-19T17:04:29.372Z,2.30
2019-03-19T17:12:59.172Z,2.70
2019-03-19T17:18:28.265Z,2.17
2019-03-19T17:20:55.672Z,2.87
2019-03-19T17:23:22.850Z,2.60
2019-03-19T17:25:50.081Z,2.30
2019-03-19T17:28:22.567Z,3.13
2019-03-19T17:30:55.885Z,2.60
2019-03-19T17:33:23.074Z,2.27
2019-03-19T17:35:50.326Z,2.00
2019-03-19T17:38:17.915Z,2.40
2019-03-19T17:40:45.480Z,3.00
2019-03-19T17:49:07.071Z,2.00
2019-03-19T17:51:34.325Z,2.90
2019-03-19T17:54:42.311Z,3.23
2019-03-19T17:57:09.568Z,2.10
2019-03-19T18:02:38.254Z,3.23
2019-03-19T18:05:37.554Z,3.90
2019-03-19T18:08:16.791Z,3.60
2019-03-19T18:16:46.924Z,2.50
2019-03-19T18:19:14.119Z,2.50
2019-03-19T18:21:41.318Z,4.13
2019-03-19T18:24:49.471Z,2.57
2019-03-19T18:27:16.655Z,2.10
2019-03-19T18:30:03.599Z,2.53
2019-03-19T18:35:55.124Z,2.33
2019-03-19T18:38:30.518Z,2.50
2019-03-19T18:41:17.347Z,2.23
2019-03-19T18:43:44.517Z,2.80
2019-03-19T18:46:11.726Z,4.00
2019-03-19T18:49:19.731Z,5.13
2019-03-19T18:51:47.314Z,3.20
2019-03-19T18:54:33.969Z,3.37
2019-03-19T18:59:38.871Z,2.70
2019-03-19T19:02:06.070Z,3.50
2019-03-19T19:05:05.124Z,3.97
2019-03-19T19:11:06.946Z,3.40
2019-03-19T19:17:08.619Z,2.90
2019-03-19T19:19:35.805Z,3.27
2019-03-19T19:22:03.692Z,3.50
2019-03-19T19:24:31.082Z,3.37
2019-03-19T19:26:58.352Z,3.20
2019-03-19T19:29:25.739Z,3.70
2019-03-19T19:31:53.149Z,4.70
2019-03-19T19:34:20.682Z,3.20
2019-03-19T19:37:07.452Z,3.60
2019-03-19T19:39:54.151Z,2.70
2019-03-19T19:43:02.229Z,2.90
2019-03-19T19:48:43.005Z,3.70
2019-03-19T19:51:10.222Z,3.30
2019-03-19T19:53:37.302Z,3.37
2019-03-19T19:56:45.378Z,4.70
2019-03-19T19:59:12.561Z,5.10
2019-03-19T20:02:20.616Z,5.17
2019-03-19T20:13:29.069Z,3.30
2019-03-19T20:15:56.224Z,3.80
2019-03-19T20:18:55.336Z,4.00
2019-03-19T20:21:22.511Z,4.67
2019-03-19T20:23:49.988Z,5.17
2019-03-19T20:26:29.516Z,4.53
2019-03-19T20:35:12.050Z,6.57
2019-03-19T20:37:39.243Z,5.27
2019-03-19T20:40:47.751Z,6.37
2019-03-19T20:43:34.419Z,4.93
2019-03-19T20:46:42.487Z,5.53
2019-03-19T20:49:09.706Z,6.50
2019-03-19T21:01:06.624Z,5.63
2019-03-19T21:03:53.267Z,4.20
2019-03-19T21:07:01.211Z,5.63
2019-03-19T21:09:28.395Z,6.30
2019-03-19T21:11:55.504Z,5.20
2019-03-19T21:17:43.583Z,5.23
2019-03-19T21:23:19.087Z,4.20
2019-03-19T21:25:46.266Z,4.23
2019-03-19T21:28:14.633Z,4.70
2019-03-19T21:31:02.785Z,3.90
2019-03-19T21:33:29.977Z,5.63
2019-03-19T21:35:57.522Z,4.47
2019-03-19T21:38:25.086Z,3.90
2019-03-19T21:41:12.094Z,4.87
2019-03-19T21:43:39.764Z,6.70
2019-03-19T21:46:06.976Z,5.03
2019-03-19T21:48:46.448Z,4.87
2019-03-19T21:51:13.635Z,4.77
2019-03-19T21:54:21.552Z,5.20
2019-03-19T21:56:49.101Z,6.10
2019-03-19T21:59:16.256Z,4.47
2019-03-19T22:01:43.517Z,6.27
2019-03-19T22:04:10.726Z,4.33
2019-03-19T22:06:37.922Z,5.60
2019-03-19T22:09:46.532Z,6.40
2019-03-19T22:12:33.210Z,5.30
2019-03-19T22:15:00.801Z,5.80
2019-03-19T22:17:47.417Z,6.17
2019-03-19T22:20:55.462Z,5.00
2019-03-19T22:26:01.590Z,5.50
2019-03-19T22:28:28.828Z,5.60
2019-03-19T22:31:15.462Z,4.73
2019-03-19T22:33:42.962Z,4.83
2019-03-19T22:36:41.994Z,5.00
2019-03-19T22:39:09.152Z,6.00
2019-03-19T22:41:36.315Z,4.63
2019-03-19T22:44:44.484Z,5.53
2019-03-19T22:47:31.100Z,5.20
2019-03-19T22:49:58.643Z,5.93
2019-03-19T22:52:26.158Z,5.70
2019-03-19T22:54:53.321Z,5.60
2019-03-19T22:57:20.587Z,6.00
2019-03-19T22:59:47.816Z,5.33
2019-03-19T23:02:15.030Z,6.27
2019-03-19T23:04:42.207Z,5.90
2019-03-19T23:16:24.284Z,5.80
2019-03-19T23:18:51.677Z,5.23
2019-03-19T23:21:59.760Z,5.40
2019-03-19T23:27:47.762Z,6.33
2019-03-19T23:30:27.010Z,7.20
2019-03-19T23:32:54.185Z,7.33
2019-03-19T23:35:21.361Z,6.20
2019-03-19T23:40:50.005Z,6.50
2019-03-19T23:49:22.699Z,6.10
2019-03-19T23:52:21.410Z,5.10
2019-03-19T23:55:00.709Z,7.67
